Time;durP1;ratioP1;P1;durP2;ratioP2;P2;SDS_P1;SDS_P2;PMS_P1;PMS_P2;Temp;Humidity;BMP_temperature;BMP_pressure;BME280_temperature;BME280_humidity;BME280_pressure;Samples;Min_cycle;Max_cycle;Signal;HPM_P1;HPM_P2
2023/10/21 00:02:12;;;;;;;;;;;;;;;13.49;98.26;99269.75;2489290;27;20365;-79
2023/10/21 00:02:43;;;;;;;;;;;;;;;13.46;98.23;99269.94;353595;28;934;-78
2023/10/21 00:02:53;;;;;;;;;;;;;;;13.44;98.07;99266.56;350780;28;1195;-80
2023/10/21 00:03:03;;;;;;;;;;;;;;;13.44;98.35;99271.81;349258;28;1215;-80
2023/10/21 00:03:13;;;;;;;;;;;;;;;13.45;98.19;99270.03;347747;28;1303;-79
2023/10/21 00:03:24;;;;;;;;;;;;;;;13.44;98.08;99266.56;350636;28;1224;-79
2023/10/21 00:03:34;;;;;;;;;;;;;;;13.44;98.76;99271.81;349075;28;1240;-79
2023/10/21 00:03:44;;;;;;;;;;;;;;;13.44;98.14;99269.19;350577;28;1063;-79
2023/10/21 00:03:54;;;;;;;;;;;;;;;13.41;98.56;99272.03;347707;28;1374;-78
2023/10/21 00:04:05;;;;;;;;;;;;;;;13.41;98.44;99268.53;348139;28;943;-78
2023/10/21 00:04:15;;;;;;;;;;;;;;;13.42;98.71;99272.88;347593;28;1247;-78
2023/10/21 00:04:25;;;;;;;;;;;;;;;13.42;98.82;99271.09;346363;28;1060;-79
2023/10/21 00:04:35;;;;;;;;;;;;;;;13.45;98.85;99273.50;346133;28;1227;-79
2023/10/21 00:04:46;;;;;;;;;;;;;;;13.45;98.53;99263.00;345612;28;1334;-79
2023/10/21 00:04:56;;;;;;;;;;;;;;;13.47;98.68;99271.63;343659;28;1418;-79
2023/10/21 00:05:06;;;;;;;;;;;;;;;13.48;98.59;99269.84;344982;28;1279;-80
2023/10/21 00:05:17;;;;;;;;;;;;;;;13.48;98.89;99273.34;345100;28;1188;-78
2023/10/21 00:05:27;;;;;;;;;;;;;;;13.50;98.58;99276.72;346425;28;1324;-78
2023/10/21 00:05:37;;;;;;;;;;;;;;;13.51;98.88;99274.94;346639;28;1242;-78
2023/10/21 00:05:47;;;;;;;;;;;;;;;13.52;98.63;99269.59;347670;28;926;-78
2023/10/21 00:05:58;;;;;;;;;;;;;;;13.52;98.74;99268.75;344834;28;1392;-78
2023/10/21 00:06:08;;;;;;;;;;;;;;;13.52;98.75;99269.59;344613;28;1321;-78
2023/10/21 00:06:18;;;;;;;;;;;;;;;13.53;98.88;99267.81;342253;28;1324;-79
2023/10/21 00:06:28;;;;;;;;;;;;;;;13.53;98.74;99271.28;344126;28;1340;-79
2023/10/21 00:06:39;;;;;;;;;;;;;;;13.54;98.76;99272.13;347496;28;2911;-78
2023/10/21 00:06:49;;;;;;;;;;;;;;;13.53;98.75;99268.66;346049;28;3462;-78
2023/10/21 00:06:59;;;;;;;;;;;;;;;13.52;98.92;99259.06;344850;28;3753;-80
2023/10/21 00:07:11;;;;;;;;;;;;;;;13.53;98.48;99266.03;343795;28;1201;-79
2023/10/21 00:07:21;;;;;;;;;;;;;;;13.50;98.35;99260.94;344888;28;1937;-79
2023/10/21 00:07:31;;;;;;;;;;;;;;;13.46;98.16;99267.31;346378;28;1483;-79
2023/10/21 00:07:42;;;;;;;;;;;;;;;13.47;98.27;99265.53;344061;28;1315;-79
2023/10/21 00:07:52;;;;;;;;;;;;;;;13.46;98.49;99266.47;348150;28;1368;-79
2023/10/21 00:08:03;;;;;;;;;;;;;;;13.45;98.70;99272.66;349286;28;1159;-79
2023/10/21 00:08:13;;;;;;;;;;;;;;;13.45;98.84;99270.03;345860;28;1103;-79
2023/10/21 00:08:23;;;;;;;;;;;;;;;13.45;98.82;99267.41;343929;28;1500;-79
2023/10/21 00:08:34;;;;;;;;;;;;;;;13.44;98.90;99269.19;341578;28;1335;-79
2023/10/21 00:08:49;;;;;;;;;;;;;;;13.47;98.92;99276.03;343129;28;1193;-79
2023/10/21 00:09:00;;;;;;;;;;;;;;;13.48;98.84;99270.69;335876;29;1263;-79
2023/10/21 00:09:10;;;;;;;;;;;;;;;13.49;99.31;99269.75;337027;29;1222;-79
2023/10/21 00:09:20;;;;;;;;;;;;;;;13.49;99.09;99272.41;337724;29;1194;-79
2023/10/21 00:09:30;;;;;;;;;;;;;;;13.49;98.99;99267.13;338847;29;1217;-80
2023/10/21 00:09:42;;;;;;;;;;;;;;;13.48;99.28;99268.06;339909;29;1317;-80
2023/10/21 00:09:55;;;;;;;;;;;;;;;13.49;99.13;99269.75;338583;29;1149;-80
2023/10/21 00:10:09;;;;;;;;;;;;;;;13.48;99.05;99268.06;338027;29;1172;-79
2023/10/21 00:10:19;;;;;;;;;;;;;;;13.48;99.31;99268.06;338141;29;1388;-79
2023/10/21 00:10:31;;;;;;;;;;;;;;;13.48;99.17;99262.81;334802;29;1250;-80
2023/10/21 00:10:41;;;;;;;;;;;;;;;13.47;99.31;99266.38;337170;29;1371;-80
2023/10/21 00:11:01;;;;;;;;;;;;;;;13.47;99.68;99261.13;334057;29;928;-80
2023/10/21 00:11:12;;;;;;;;;;;;;;;13.48;99.48;99268.06;334776;29;1235;-80
2023/10/21 00:11:22;;;;;;;;;;;;;;;13.49;99.16;99264.50;333655;29;1508;-80
2023/10/21 00:11:32;;;;;;;;;;;;;;;13.50;99.19;99265.34;334523;29;1106;-80
2023/10/21 00:11:43;;;;;;;;;;;;;;;13.50;99.05;99260.94;335529;29;1360;-79
2023/10/21 00:11:53;;;;;;;;;;;;;;;13.48;98.92;99262.81;337015;29;1204;-79
2023/10/21 00:12:06;;;;;;;;;;;;;;;13.48;98.61;99261.97;334421;29;1532;-79
2023/10/21 00:12:16;;;;;;;;;;;;;;;13.46;98.89;99259.44;333289;29;1309;-80
2023/10/21 00:12:26;;;;;;;;;;;;;;;13.47;98.65;99260.28;330893;29;1278;-80
2023/10/21 00:12:37;;;;;;;;;;;;;;;13.47;98.87;99261.13;332671;29;1749;-79
2023/10/21 00:12:47;;;;;;;;;;;;;;;13.48;98.91;99265.44;333027;29;1763;-79
2023/10/21 00:12:57;;;;;;;;;;;;;;;13.48;98.30;99262.81;329325;30;1423;-80
2023/10/21 00:13:08;;;;;;;;;;;;;;;13.48;98.60;99262.81;326627;30;1560;-80
2023/10/21 00:13:18;;;;;;;;;;;;;;;13.46;98.51;99266.47;328798;29;1499;-80
2023/10/21 00:13:28;;;;;;;;;;;;;;;13.46;98.55;99264.69;329987;30;1233;-80
2023/10/21 00:13:38;;;;;;;;;;;;;;;13.46;98.79;99269.94;327366;30;1400;-80
2023/10/21 00:13:49;;;;;;;;;;;;;;;13.45;98.64;99270.03;329434;30;1328;-80
2023/10/21 00:13:59;;;;;;;;;;;;;;;13.43;98.77;99270.13;323769;30;6477;-80
2023/10/21 00:14:09;;;;;;;;;;;;;;;13.40;99.26;99265.06;324250;30;3092;-80
2023/10/21 00:14:19;;;;;;;;;;;;;;;13.40;99.26;99262.44;324383;30;1963;-79
2023/10/21 00:14:30;;;;;;;;;;;;;;;13.41;99.05;99264.13;323488;30;851;-79
2023/10/21 00:14:40;;;;;;;;;;;;;;;13.40;99.30;99262.44;325219;30;2268;-79
2023/10/21 00:14:51;;;;;;;;;;;;;;;13.39;99.18;99268.63;325254;30;2174;-79
2023/10/21 00:15:02;;;;;;;;;;;;;;;13.37;98.84;99265.25;325776;30;1277;-79
2023/10/21 00:15:12;;;;;;;;;;;;;;;13.37;99.15;99265.25;319861;30;1428;-79
2023/10/21 00:15:23;;;;;;;;;;;;;;;13.38;99.33;99266.94;319100;30;2459;-79
2023/10/21 00:15:34;;;;;;;;;;;;;;;13.37;99.14;99265.25;318507;30;1611;-79
2023/10/21 00:15:44;;;;;;;;;;;;;;;13.39;99.21;99257.28;317559;31;1144;-78
2023/10/21 00:15:54;;;;;;;;;;;;;;;13.37;99.08;99254.72;316171;31;940;-79
2023/10/21 00:16:04;;;;;;;;;;;;;;;13.37;98.90;99260.00;315196;31;1822;-79
2023/10/21 00:16:15;;;;;;;;;;;;;;;13.36;99.10;99258.28;316489;31;1237;-79
2023/10/21 00:16:25;;;;;;;;;;;;;;;13.37;99.15;99256.50;311527;31;2360;-78
2023/10/21 00:16:36;;;;;;;;;;;;;;;13.37;99.41;99260.00;309409;31;2835;-78
2023/10/21 00:16:46;;;;;;;;;;;;;;;13.38;99.40;99256.44;309907;31;812;-79
2023/10/21 00:16:56;;;;;;;;;;;;;;;13.39;99.38;99258.13;311905;31;3317;-79
2023/10/21 00:17:06;;;;;;;;;;;;;;;13.41;99.30;99256.25;311587;31;3324;-79
2023/10/21 00:17:17;;;;;;;;;;;;;;;13.41;99.29;99256.25;310278;31;3083;-79
2023/10/21 00:17:28;;;;;;;;;;;;;;;13.42;98.89;99260.56;307927;32;1204;-79
2023/10/21 00:17:38;;;;;;;;;;;;;;;13.41;98.95;99260.66;306508;31;2704;-80
2023/10/21 00:17:48;;;;;;;;;;;;;;;13.40;98.96;99259.81;308547;31;2424;-79
2023/10/21 00:17:58;;;;;;;;;;;;;;;13.42;98.90;99263.19;310919;31;890;-79
2023/10/21 00:18:09;;;;;;;;;;;;;;;13.43;98.88;99258.78;310057;31;1852;-79
2023/10/21 00:18:19;;;;;;;;;;;;;;;13.41;98.81;99261.50;308179;31;2251;-78
2023/10/21 00:18:29;;;;;;;;;;;;;;;13.41;98.60;99263.28;304579;32;1235;-79
2023/10/21 00:18:39;;;;;;;;;;;;;;;13.41;98.43;99263.28;304572;32;2981;-79
2023/10/21 00:18:52;;;;;;;;;;;;;;;13.40;98.68;99265.06;302178;32;4351;-79
2023/10/21 00:19:03;;;;;;;;;;;;;;;13.41;98.86;99272.03;301011;32;4979;-79
2023/10/21 00:19:13;;;;;;;;;;;;;;;13.41;98.65;99272.03;300415;32;1377;-79
2023/10/21 00:19:23;;;;;;;;;;;;;;;13.41;98.76;99264.13;301681;32;4811;-79
2023/10/21 00:19:34;;;;;;;;;;;;;;;13.39;98.61;99262.53;302517;32;4274;-79
2023/10/21 00:19:44;;;;;;;;;;;;;;;13.39;98.62;99265.16;302458;32;1254;-79
2023/10/21 00:19:54;;;;;;;;;;;;;;;13.39;98.57;99262.53;301099;32;3782;-79
2023/10/21 00:20:06;;;;;;;;;;;;;;;13.39;98.86;99258.13;300007;32;3434;-79
2023/10/21 00:20:17;;;;;;;;;;;;;;;13.39;98.77;99258.13;300308;32;829;-79
2023/10/21 00:20:27;;;;;;;;;;;;;;;13.38;98.89;99264.31;295250;33;1390;-81
2023/10/21 00:20:37;;;;;;;;;;;;;;;13.35;98.61;99261.84;294160;33;3674;-79
2023/10/21 00:20:47;;;;;;;;;;;;;;;13.32;98.64;99265.50;294172;33;5014;-79
2023/10/21 00:20:57;;;;;;;;;;;;;;;13.28;98.76;99260.50;297338;33;866;-79
2023/10/21 00:21:08;;;;;;;;;;;;;;;13.28;98.75;99263.13;293017;33;6357;-79
2023/10/21 00:21:18;;;;;;;;;;;;;;;13.27;98.76;99264.94;290693;33;7765;-79
2023/10/21 00:21:29;;;;;;;;;;;;;;;13.23;98.91;99263.41;289465;34;1410;-79
2023/10/21 00:21:39;;;;;;;;;;;;;;;13.24;99.17;99261.63;285065;34;7664;-79
2023/10/21 00:21:53;;;;;;;;;;;;;;;13.25;99.35;99260.69;285664;33;6123;-79
2023/10/21 00:22:05;;;;;;;;;;;;;;;13.27;99.01;99264.94;288304;33;5894;-78
2023/10/21 00:22:15;;;;;;;;;;;;;;;13.27;99.36;99261.44;287164;34;1245;-79
2023/10/21 00:22:26;;;;;;;;;;;;;;;13.27;99.30;99264.06;285700;34;5130;-79
2023/10/21 00:22:36;;;;;;;;;;;;;;;13.28;99.50;99261.38;283565;34;3801;-79
2023/10/21 00:22:46;;;;;;;;;;;;;;;13.30;99.47;99264.75;285005;34;880;-78
2023/10/21 00:24:39;;;;;;;;;;;;;;;13.39;99.52;99273.03;2500556;27;19932;-79
2023/10/21 00:24:49;;;;;;;;;;;;;;;13.39;99.50;99268.63;354609;27;1249;-79
2023/10/21 00:25:03;;;;;;;;;;;;;;;13.38;99.18;99264.31;351881;28;1202;-79
2023/10/21 00:25:13;;;;;;;;;;;;;;;13.37;99.25;99264.41;347764;28;1402;-79
2023/10/21 00:25:24;;;;;;;;;;;;;;;13.34;99.34;99262.78;349225;28;1320;-79
2023/10/21 00:25:34;;;;;;;;;;;;;;;13.35;99.41;99266.28;349050;28;1231;-79
2023/10/21 00:25:44;;;;;;;;;;;;;;;13.33;99.52;99268.97;349118;28;1302;-79
2023/10/21 00:25:54;;;;;;;;;;;;;;;13.32;99.53;99262.03;347939;28;1231;-79
2023/10/21 00:26:05;;;;;;;;;;;;;;;13.30;99.39;99263.91;348996;28;1239;-79
2023/10/21 00:26:15;;;;;;;;;;;;;;;13.29;99.60;99267.47;346026;28;1312;-79
2023/10/21 00:26:25;;;;;;;;;;;;;;;13.28;99.33;99266.63;347846;28;1209;-79
2023/10/21 00:26:42;;;;;;;;;;;;;;;13.28;99.61;99268.41;347548;28;1207;-79
2023/10/21 00:26:53;;;;;;;;;;;;;;;13.30;99.57;99266.53;348457;28;1283;-79
2023/10/21 00:27:03;;;;;;;;;;;;;;;13.30;99.57;99266.53;347761;28;1285;-78
2023/10/21 00:27:14;;;;;;;;;;;;;;;13.30;99.19;99274.41;350490;28;1317;-79
2023/10/21 00:27:24;;;;;;;;;;;;;;;13.30;99.07;99263.91;350615;28;790;-79
2023/10/21 00:27:34;;;;;;;;;;;;;;;13.29;99.22;99267.47;349004;28;1200;-79
2023/10/21 00:27:44;;;;;;;;;;;;;;;13.27;99.15;99264.06;349084;28;1331;-78
2023/10/21 00:27:54;;;;;;;;;;;;;;;13.20;98.99;99268.00;349068;28;1298;-78
2023/10/21 00:28:05;;;;;;;;;;;;;;;13.18;99.39;99269.84;347805;28;1319;-78
2023/10/21 00:28:15;;;;;;;;;;;;;;;13.18;99.22;99269.84;346838;28;1293;-78
2023/10/21 00:28:25;;;;;;;;;;;;;;;13.17;99.38;99268.16;348880;28;1281;-79
2023/10/21 00:28:35;;;;;;;;;;;;;;;13.14;99.53;99270.94;346386;28;1178;-79
2023/10/21 00:28:46;;;;;;;;;;;;;;;13.15;99.65;99259.47;347781;28;919;-79
2023/10/21 00:28:58;;;;;;;;;;;;;;;13.13;99.56;99264.81;347813;28;1296;-79
2023/10/21 00:29:08;;;;;;;;;;;;;;;13.13;99.56;99262.19;345144;28;1309;-79
2023/10/21 00:29:18;;;;;;;;;;;;;;;13.14;99.80;99263.88;344559;28;1197;-79
2023/10/21 00:29:28;;;;;;;;;;;;;;;13.15;99.90;99264.75;345081;28;982;-78
2023/10/21 00:29:39;;;;;;;;;;;;;;;13.18;99.71;99269.84;345191;28;1458;-78
2023/10/21 00:29:49;;;;;;;;;;;;;;;13.18;99.51;99261.97;345083;28;1074;-79
2023/10/21 00:29:59;;;;;;;;;;;;;;;13.20;99.73;99268.84;342452;28;1211;-79
2023/10/21 00:30:11;;;;;;;;;;;;;;;13.19;99.63;99261.03;342285;28;1241;-79
2023/10/21 00:30:22;;;;;;;;;;;;;;;13.19;99.55;99261.03;346271;28;1323;-79
2023/10/21 00:30:32;;;;;;;;;;;;;;;13.20;99.51;99263.56;347035;28;1171;-79
2023/10/21 00:30:45;;;;;;;;;;;;;;;13.21;99.51;99264.44;346429;28;1270;-79
2023/10/21 00:30:55;;;;;;;;;;;;;;;13.21;99.56;99264.44;343444;28;1425;-79
2023/10/21 00:31:06;;;;;;;;;;;;;;;13.21;99.83;99264.44;343499;28;1243;-79
2023/10/21 00:31:16;;;;;;;;;;;;;;;13.22;99.42;99266.13;343599;28;1097;-79
2023/10/21 00:31:26;;;;;;;;;;;;;;;13.22;99.78;99263.50;344015;28;867;-79
2023/10/21 00:31:36;;;;;;;;;;;;;;;13.22;99.85;99261.72;343741;28;1292;-79
2023/10/21 00:31:47;;;;;;;;;;;;;;;13.21;100.00;99267.06;343914;28;1468;-79
2023/10/21 00:31:57;;;;;;;;;;;;;;;13.21;100.00;99261.81;342132;28;1210;-79
2023/10/21 00:32:08;;;;;;;;;;;;;;;13.21;99.75;99261.81;345114;28;935;-79
2023/10/21 00:32:18;;;;;;;;;;;;;;;13.21;99.76;99270.53;343940;28;1678;-79
2023/10/21 00:32:28;;;;;;;;;;;;;;;13.18;99.73;99259.34;337842;28;2242;-79
2023/10/21 00:32:39;;;;;;;;;;;;;;;13.20;99.69;99262.72;339241;29;3062;-78
2023/10/21 00:32:49;;;;;;;;;;;;;;;13.22;99.57;99266.13;339823;29;1415;-78
2023/10/21 00:32:59;;;;;;;;;;;;;;;13.22;99.34;99266.97;337059;29;1350;-79
2023/10/21 00:33:09;;;;;;;;;;;;;;;13.16;99.44;99261.22;343474;28;3361;-79
2023/10/21 00:33:20;;;;;;;;;;;;;;;13.14;99.56;99263.03;344630;28;1656;-79
2023/10/21 00:33:30;;;;;;;;;;;;;;;13.15;99.45;99267.38;343587;28;1910;-79
2023/10/21 00:33:40;;;;;;;;;;;;;;;13.14;99.49;99266.53;340946;29;1217;-78
2023/10/21 00:33:51;;;;;;;;;;;;;;;13.15;99.24;99265.59;344255;28;849;-79
2023/10/21 00:34:01;;;;;;;;;;;;;;;13.14;99.52;99263.88;344993;28;1220;-79
2023/10/21 00:34:11;;;;;;;;;;;;;;;13.14;99.51;99263.88;346439;28;1180;-78
2023/10/21 00:34:21;;;;;;;;;;;;;;;13.16;99.87;99266.47;345899;28;1301;-78
2023/10/21 00:34:37;;;;;;;;;;;;;;;13.16;99.93;99271.72;339674;29;1451;-78
2023/10/21 00:34:49;;;;;;;;;;;;;;;13.16;100.00;99272.56;340862;28;1852;-78
2023/10/21 00:34:59;;;;;;;;;;;;;;;13.17;99.97;99268.16;336788;29;1779;-78
2023/10/21 00:35:09;;;;;;;;;;;;;;;13.16;99.85;99271.72;334539;29;1466;-78
2023/10/21 00:35:20;;;;;;;;;;;;;;;13.16;99.88;99267.31;333139;29;1982;-78
2023/10/21 00:35:33;;;;;;;;;;;;;;;13.15;99.74;99270.00;330874;29;2114;-78
2023/10/21 00:35:44;;;;;;;;;;;;;;;13.15;99.99;99270.00;329558;29;1632;-79
2023/10/21 00:35:54;;;;;;;;;;;;;;;13.15;99.85;99270.00;335709;29;1102;-78
2023/10/21 00:36:05;;;;;;;;;;;;;;;13.15;99.66;99264.75;335795;29;949;-79
2023/10/21 00:36:15;;;;;;;;;;;;;;;13.16;99.63;99269.09;335352;29;1299;-79
2023/10/21 00:36:25;;;;;;;;;;;;;;;13.15;99.64;99267.38;335777;29;1311;-78
2023/10/21 00:36:35;;;;;;;;;;;;;;;13.14;99.55;99269.16;334615;29;1646;-78
2023/10/21 00:36:46;;;;;;;;;;;;;;;13.15;99.78;99265.59;335084;29;2010;-78
2023/10/21 00:36:56;;;;;;;;;;;;;;;13.17;99.79;99268.16;336005;29;763;-78
2023/10/21 00:37:08;;;;;;;;;;;;;;;13.19;99.47;99266.28;333727;29;2035;-79
2023/10/21 00:37:18;;;;;;;;;;;;;;;13.18;99.54;99270.69;332835;29;2182;-78
2023/10/21 00:37:28;;;;;;;;;;;;;;;13.17;99.16;99269.00;330262;29;2414;-78
2023/10/21 00:37:38;;;;;;;;;;;;;;;13.19;99.09;99271.53;329571;30;1193;-78
2023/10/21 00:37:48;;;;;;;;;;;;;;;13.19;98.96;99269.78;327706;30;2527;-78
2023/10/21 00:37:59;;;;;;;;;;;;;;;13.19;99.33;99277.66;329523;29;1854;-79
2023/10/21 00:38:09;;;;;;;;;;;;;;;13.17;99.10;99274.25;332001;29;1213;-79
2023/10/21 00:38:19;;;;;;;;;;;;;;;13.15;98.89;99270.84;327948;30;1207;-78
2023/10/21 00:38:29;;;;;;;;;;;;;;;13.16;99.25;99271.72;326402;30;1753;-78
2023/10/21 00:38:40;;;;;;;;;;;;;;;13.17;99.24;99271.63;324815;30;1216;-79
2023/10/21 00:38:50;;;;;;;;;;;;;;;13.18;99.15;99275.09;327962;29;2094;-79
2023/10/21 00:39:01;;;;;;;;;;;;;;;13.19;99.14;99271.53;323840;30;2859;-79
2023/10/21 00:39:11;;;;;;;;;;;;;;;13.18;99.51;99272.47;320523;30;1238;-78
2023/10/21 00:39:22;;;;;;;;;;;;;;;13.20;99.71;99274.09;321288;30;3029;-78
2023/10/21 00:39:35;;;;;;;;;;;;;;;13.21;99.62;99280.19;321628;30;3023;-79
2023/10/21 00:39:46;;;;;;;;;;;;;;;13.21;99.61;99275.78;320087;30;3313;-78
2023/10/21 00:39:56;;;;;;;;;;;;;;;13.20;99.48;99271.47;316459;31;1305;-78
2023/10/21 00:40:07;;;;;;;;;;;;;;;13.20;99.59;99271.47;318225;31;3204;-78
2023/10/21 00:40:17;;;;;;;;;;;;;;;13.20;99.43;99275.88;317298;31;2433;-78
2023/10/21 00:40:27;;;;;;;;;;;;;;;13.21;99.85;99272.31;315329;31;1076;-79
2023/10/21 00:40:37;;;;;;;;;;;;;;;13.20;99.84;99268.84;319134;30;2658;-79
2023/10/21 00:40:48;;;;;;;;;;;;;;;13.21;99.84;99269.69;319756;30;2845;-79
2023/10/21 00:40:58;;;;;;;;;;;;;;;13.22;99.82;99266.13;316136;31;3278;-78
2023/10/21 00:41:08;;;;;;;;;;;;;;;13.23;99.91;99267.81;312370;31;1466;-79
2023/10/21 00:41:19;;;;;;;;;;;;;;;13.22;99.59;99263.50;310291;31;3961;-79
2023/10/21 00:41:29;;;;;;;;;;;;;;;13.18;99.28;99259.34;309534;31;4432;-78
2023/10/21 00:41:39;;;;;;;;;;;;;;;13.16;99.43;99258.59;314280;31;3198;-79
2023/10/21 00:41:49;;;;;;;;;;;;;;;13.12;99.25;99254.41;308136;31;4134;-79
2023/10/21 00:42:00;;;;;;;;;;;;;;;13.10;99.31;99256.28;306722;31;3947;-79
2023/10/21 00:42:11;;;;;;;;;;;;;;;13.08;99.69;99256.34;306482;32;1238;-79
2023/10/21 00:42:21;;;;;;;;;;;;;;;13.06;99.68;99260.00;305032;32;4100;-78
2023/10/21 00:42:31;;;;;;;;;;;;;;;13.04;99.70;99261.88;305147;32;3417;-78
2023/10/21 00:42:41;;;;;;;;;;;;;;;13.03;99.53;99260.19;305457;32;1193;-79
2023/10/21 00:42:53;;;;;;;;;;;;;;;13.06;99.60;99260.84;304550;32;3373;-79
2023/10/21 00:43:04;;;;;;;;;;;;;;;13.07;100.00;99267.78;300544;32;4573;-79
2023/10/21 00:43:30;;;;;;;;;;;;;;;13.07;99.96;99272.22;299453;32;4774;-79
2023/10/21 00:43:40;;;;;;;;;;;;;;;13.07;100.00;99262.53;298351;32;1331;-79
2023/10/21 00:43:50;;;;;;;;;;;;;;;13.09;99.95;99265.94;292730;33;6374;-79
2023/10/21 00:44:00;;;;;;;;;;;;;;;13.10;100.00;99267.63;291047;33;6437;-79
2023/10/21 00:44:11;;;;;;;;;;;;;;;13.12;100.00;99270.16;291595;34;1344;-79
2023/10/21 00:44:21;;;;;;;;;;;;;;;13.13;100.00;99271.88;290425;33;5394;-79
2023/10/21 00:44:32;;;;;;;;;;;;;;;13.15;100.00;99270.84;288608;33;5372;-78
2023/10/21 00:44:42;;;;;;;;;;;;;;;13.16;99.89;99271.72;290597;34;1379;-78
2023/10/21 00:44:52;;;;;;;;;;;;;;;13.16;99.86;99271.72;288514;34;4537;-78
2023/10/21 00:45:03;;;;;;;;;;;;;;;13.15;99.99;99268.22;285995;34;5051;-78
2023/10/21 00:45:14;;;;;;;;;;;;;;;13.17;99.72;99276.88;284026;34;7807;-78
2023/10/21 00:45:24;;;;;;;;;;;;;;;13.17;99.78;99276.03;284901;34;1201;-78
2023/10/21 00:45:34;;;;;;;;;;;;;;;13.17;100.00;99265.53;281686;34;7812;-79
2023/10/21 00:45:44;;;;;;;;;;;;;;;13.19;100.00;99276.81;281288;34;8699;-78
2023/10/21 00:45:55;;;;;;;;;;;;;;;13.20;99.89;99278.50;281097;35;806;-78
2023/10/21 00:48:06;;;;;;;;;;;;;;;12.95;100.00;99274.63;2495240;27;20758;-77
2023/10/21 00:48:16;;;;;;;;;;;;;;;12.93;100.00;99271.22;353150;28;1309;-77
2023/10/21 00:48:26;;;;;;;;;;;;;;;12.92;100.00;99266.91;353007;28;1304;-78
2023/10/21 00:48:37;;;;;;;;;;;;;;;12.93;100.00;99265.97;348973;28;1230;-78
2023/10/21 00:48:48;;;;;;;;;;;;;;;12.95;100.00;99261.47;349108;28;871;-77
2023/10/21 00:48:58;;;;;;;;;;;;;;;12.98;100.00;99263.94;349017;28;1057;-77
2023/10/21 00:49:08;;;;;;;;;;;;;;;12.98;100.00;99266.56;349070;28;1215;-77
2023/10/21 00:49:18;;;;;;;;;;;;;;;12.99;100.00;99265.63;350304;28;1251;-77
2023/10/21 00:49:29;;;;;;;;;;;;;;;13.03;100.00;99265.44;350264;28;1247;-77
2023/10/21 00:49:39;;;;;;;;;;;;;;;13.04;100.00;99261.88;351777;28;1202;-77
2023/10/21 00:49:49;;;;;;;;;;;;;;;13.05;100.00;99263.56;349032;28;1210;-77
2023/10/21 00:50:00;;;;;;;;;;;;;;;13.04;100.00;99267.13;348142;28;1093;-77
2023/10/21 00:50:11;;;;;;;;;;;;;;;13.05;100.00;99268.81;349198;28;1427;-78
2023/10/21 00:50:22;;;;;;;;;;;;;;;13.04;100.00;99267.97;350377;28;1262;-77
2023/10/21 00:50:32;;;;;;;;;;;;;;;13.04;100.00;99267.13;349098;28;1204;-77
2023/10/21 00:50:42;;;;;;;;;;;;;;;13.05;100.00;99263.56;350290;28;1222;-78
2023/10/21 00:50:52;;;;;;;;;;;;;;;13.05;100.00;99266.19;349928;28;3044;-78
2023/10/21 00:51:03;;;;;;;;;;;;;;;13.06;100.00;99262.63;349827;28;5115;-78
2023/10/21 00:51:13;;;;;;;;;;;;;;;13.07;100.00;99264.31;350666;28;1171;-78
2023/10/21 00:51:23;;;;;;;;;;;;;;;13.07;100.00;99264.31;348963;28;1232;-78
2023/10/21 00:51:35;;;;;;;;;;;;;;;13.08;100.00;99263.38;349771;28;3363;-80
2023/10/21 00:51:45;;;;;;;;;;;;;;;13.11;100.00;99263.22;347902;28;1366;-80
2023/10/21 00:51:56;;;;;;;;;;;;;;;13.11;100.00;99268.47;349430;28;1198;-78
2023/10/21 00:52:06;;;;;;;;;;;;;;;13.11;100.00;99260.59;349010;28;1184;-78
2023/10/21 00:52:16;;;;;;;;;;;;;;;13.14;100.00;99268.31;351283;28;1330;-78
2023/10/21 00:52:27;;;;;;;;;;;;;;;13.12;99.79;99260.50;349092;28;1359;-77
2023/10/21 00:52:39;;;;;;;;;;;;;;;13.12;99.91;99270.16;349959;28;1305;-77
2023/10/21 00:52:50;;;;;;;;;;;;;;;13.13;99.77;99263.97;348098;28;1328;-77
2023/10/21 00:53:00;;;;;;;;;;;;;;;13.12;99.72;99265.75;346344;28;796;-77
2023/10/21 00:53:11;;;;;;;;;;;;;;;13.12;99.60;99271.00;347684;28;1308;-77
2023/10/21 00:53:21;;;;;;;;;;;;;;;13.12;99.74;99267.53;349013;28;1191;-78
2023/10/21 00:53:32;;;;;;;;;;;;;;;13.12;99.63;99267.53;348044;28;880;-78
2023/10/21 00:53:43;;;;;;;;;;;;;;;13.11;99.87;99265.84;347954;28;1373;-78
2023/10/21 00:53:53;;;;;;;;;;;;;;;13.12;99.88;99265.75;352991;28;1321;-77
2023/10/21 00:54:03;;;;;;;;;;;;;;;13.13;100.00;99269.22;350114;28;1280;-77
2023/10/21 00:54:14;;;;;;;;;;;;;;;13.13;99.78;99262.19;348099;28;1274;-78
2023/10/21 00:54:24;;;;;;;;;;;;;;;13.12;99.95;99267.53;346270;28;1252;-78
2023/10/21 00:54:35;;;;;;;;;;;;;;;13.10;100.00;99269.41;344040;28;1422;-78
2023/10/21 00:54:45;;;;;;;;;;;;;;;13.09;100.00;99268.56;345817;28;1163;-78
2023/10/21 00:54:55;;;;;;;;;;;;;;;13.09;100.00;99265.94;347530;28;1014;-78
2023/10/21 00:55:05;;;;;;;;;;;;;;;13.10;100.00;99266.78;346230;28;1346;-78
2023/10/21 00:55:16;;;;;;;;;;;;;;;13.11;99.95;99273.72;346339;28;796;-79
2023/10/21 00:55:26;;;;;;;;;;;;;;;13.12;100.00;99265.75;349245;28;1432;-77
2023/10/21 00:55:36;;;;;;;;;;;;;;;13.13;99.96;99269.22;344936;28;1141;-77
2023/10/21 00:55:46;;;;;;;;;;;;;;;13.12;99.80;99268.38;348566;28;1191;-77
2023/10/21 00:55:57;;;;;;;;;;;;;;;13.10;99.73;99270.25;343859;28;1223;-77
2023/10/21 00:56:07;;;;;;;;;;;;;;;13.09;99.80;99273.81;346501;28;1217;-78
2023/10/21 00:56:18;;;;;;;;;;;;;;;13.09;99.88;99270.34;343446;28;1238;-78
2023/10/21 00:56:29;;;;;;;;;;;;;;;13.08;99.55;99273.91;344730;28;1433;-78
2023/10/21 00:56:39;;;;;;;;;;;;;;;13.06;100.00;99271.34;342205;28;1218;-78
2023/10/21 00:56:49;;;;;;;;;;;;;;;13.08;100.00;99273.91;335552;29;1522;-78
2023/10/21 00:56:59;;;;;;;;;;;;;;;13.07;99.83;99272.22;337040;29;1985;-79
2023/10/21 00:57:10;;;;;;;;;;;;;;;13.07;100.00;99272.22;341004;29;1102;-78
2023/10/21 00:57:20;;;;;;;;;;;;;;;13.07;99.83;99273.06;340842;29;1257;-78
2023/10/21 00:57:31;;;;;;;;;;;;;;;13.06;99.98;99276.63;340743;28;1197;-78
2023/10/21 00:57:41;;;;;;;;;;;;;;;13.08;99.87;99273.91;341991;28;1500;-78
2023/10/21 00:57:51;;;;;;;;;;;;;;;13.07;99.61;99272.22;340866;29;1218;-78
2023/10/21 00:58:02;;;;;;;;;;;;;;;13.05;99.64;99274.91;340723;28;1498;-78
2023/10/21 00:58:12;;;;;;;;;;;;;;;13.00;99.41;99277.81;339192;29;1696;-78
2023/10/21 00:58:25;;;;;;;;;;;;;;;13.00;99.44;99276.94;338293;29;830;-78
2023/10/21 00:58:35;;;;;;;;;;;;;;;13.01;99.60;99276.03;329481;30;822;-77
2023/10/21 00:58:45;;;;;;;;;;;;;;;13.03;99.83;99278.56;329827;29;2134;-78
2023/10/21 00:58:56;;;;;;;;;;;;;;;13.03;99.56;99265.44;330936;29;2091;-78
2023/10/21 00:59:06;;;;;;;;;;;;;;;13.02;99.76;99276.88;333385;29;1232;-80
2023/10/21 00:59:16;;;;;;;;;;;;;;;13.00;99.75;99274.31;334588;29;1545;-80
2023/10/21 00:59:27;;;;;;;;;;;;;;;12.99;99.41;99265.63;331089;29;1288;-79
2023/10/21 00:59:40;;;;;;;;;;;;;;;12.99;99.86;99276.13;331740;29;1374;-79
2023/10/21 00:59:50;;;;;;;;;;;;;;;12.99;99.91;99273.50;328260;30;854;-78
2023/10/21 01:00:00;;;;;;;;;;;;;;;13.00;100.00;99274.31;325275;30;1913;-78
2023/10/21 01:00:11;;;;;;;;;;;;;;;13.00;99.94;99269.06;324721;30;2130;-78
2023/10/21 01:00:21;;;;;;;;;;;;;;;13.02;100.00;99269.00;323365;30;5496;-78
2023/10/21 01:00:31;;;;;;;;;;;;;;;13.02;100.00;99269.84;327327;30;5697;-79
2023/10/21 01:00:42;;;;;;;;;;;;;;;13.03;100.00;99270.69;326629;30;2395;-80
2023/10/21 01:00:53;;;;;;;;;;;;;;;13.03;100.00;99270.69;323896;30;5865;-80
2023/10/21 01:01:06;;;;;;;;;;;;;;;13.05;100.00;99274.06;320270;30;2285;-80
2023/10/21 01:01:16;;;;;;;;;;;;;;;13.03;100.00;99268.91;319044;30;2501;-78
2023/10/21 01:01:26;;;;;;;;;;;;;;;13.04;100.00;99267.97;319364;30;1793;-77
2023/10/21 01:01:37;;;;;;;;;;;;;;;13.02;100.00;99269.00;317522;31;1004;-78
2023/10/21 01:01:47;;;;;;;;;;;;;;;12.99;100.00;99268.25;317782;31;1373;-77
2023/10/21 01:01:57;;;;;;;;;;;;;;;13.02;100.00;99271.63;319285;30;2145;-78
2023/10/21 01:02:10;;;;;;;;;;;;;;;13.02;100.00;99269.00;318691;31;865;-78
2023/10/21 01:02:20;;;;;;;;;;;;;;;13.02;100.00;99266.34;317532;31;1326;-77
2023/10/21 01:02:30;;;;;;;;;;;;;;;13.03;100.00;99268.06;316826;31;2631;-77
2023/10/21 01:02:42;;;;;;;;;;;;;;;13.00;99.85;99272.53;315721;30;3114;-77
2023/10/21 01:02:52;;;;;;;;;;;;;;;12.99;100.00;99272.66;316267;31;1430;-77